createdAt,value
2018-06-12T00:01:49.171Z,18.10
2018-06-12T00:04:17.273Z,18.10
2018-06-12T00:06:45.473Z,18.00
2018-06-12T00:09:13.576Z,18.00
2018-06-12T00:11:41.689Z,18.00
2018-06-12T00:14:09.793Z,18.10
2018-06-12T00:16:38.010Z,18.10
2018-06-12T00:21:34.005Z,18.00
2018-06-12T00:24:02.106Z,18.00
2018-06-12T00:26:30.346Z,17.90
2018-06-12T00:28:58.497Z,17.80
2018-06-12T00:31:26.658Z,17.70
2018-06-12T00:36:22.726Z,17.60
2018-06-12T00:38:50.850Z,17.60
2018-06-12T00:41:18.954Z,17.60
2018-06-12T00:43:47.109Z,17.70
2018-06-12T00:46:15.282Z,17.70
2018-06-12T00:48:43.522Z,17.60
2018-06-12T00:51:11.661Z,17.60
2018-06-12T00:53:39.962Z,17.60
2018-06-12T00:56:08.097Z,17.60
2018-06-12T00:58:36.873Z,17.60
2018-06-12T01:01:05.098Z,17.60
2018-06-12T01:03:33.253Z,17.50
2018-06-12T01:06:01.391Z,17.50
2018-06-12T01:08:29.546Z,17.40
2018-06-12T01:10:57.737Z,17.40
2018-06-12T01:13:26.041Z,17.40
2018-06-12T01:15:54.186Z,17.30
2018-06-12T01:18:22.337Z,17.30
2018-06-12T01:20:50.537Z,17.30
2018-06-12T01:23:18.719Z,17.30
2018-06-12T01:25:46.848Z,17.20
2018-06-12T01:28:15.000Z,17.20
2018-06-12T01:30:43.146Z,17.10
2018-06-12T01:33:11.322Z,17.10
2018-06-12T01:35:39.489Z,17.10
2018-06-12T01:38:07.633Z,17.00
2018-06-12T01:40:35.778Z,16.90
2018-06-12T01:43:03.969Z,16.90
2018-06-12T01:45:32.134Z,16.90
2018-06-12T01:48:00.270Z,16.90
2018-06-12T01:50:28.414Z,16.90
2018-06-12T01:52:56.558Z,16.80
2018-06-12T01:55:24.706Z,16.80
2018-06-12T01:57:52.869Z,16.80
2018-06-12T02:00:21.024Z,16.70
2018-06-12T02:02:49.159Z,16.70
2018-06-12T02:05:17.346Z,16.60
2018-06-12T02:07:45.507Z,16.60
2018-06-12T02:10:13.638Z,16.60
2018-06-12T02:12:41.785Z,16.60
2018-06-12T02:15:09.965Z,16.60
2018-06-12T02:17:38.813Z,16.60
2018-06-12T02:22:34.915Z,16.60
2018-06-12T02:25:03.073Z,16.70
2018-06-12T02:27:31.209Z,16.70
2018-06-12T02:29:59.357Z,16.70
2018-06-12T02:32:27.503Z,16.70
2018-06-12T02:34:55.661Z,16.60
2018-06-12T02:37:24.041Z,16.60
2018-06-12T02:39:52.242Z,16.60
2018-06-12T02:42:20.388Z,16.70
2018-06-12T02:44:48.526Z,16.70
2018-06-12T02:47:16.678Z,16.60
2018-06-12T02:49:44.848Z,16.50
2018-06-12T02:52:13.010Z,16.50
2018-06-12T02:54:41.170Z,16.50
2018-06-12T02:57:09.321Z,16.60
2018-06-12T02:59:37.598Z,16.60
2018-06-12T03:02:05.780Z,16.50
2018-06-12T03:04:33.927Z,16.60
2018-06-12T03:07:02.075Z,16.70
2018-06-12T03:09:30.210Z,16.70
2018-06-12T03:11:58.373Z,16.70
2018-06-12T03:14:26.601Z,16.60
2018-06-12T03:16:54.766Z,16.60
2018-06-12T03:19:22.945Z,16.60
2018-06-12T03:21:51.185Z,16.50
2018-06-12T03:24:19.351Z,16.50
2018-06-12T03:26:47.502Z,16.40
2018-06-12T03:29:15.725Z,16.40
2018-06-12T03:31:43.918Z,16.50
2018-06-12T03:34:12.126Z,16.50
2018-06-12T03:36:40.335Z,16.60
2018-06-12T03:39:08.470Z,16.60
2018-06-12T03:41:36.621Z,16.60
2018-06-12T03:44:04.901Z,16.60
2018-06-12T03:46:33.918Z,16.50
2018-06-12T03:49:02.063Z,16.50
2018-06-12T03:51:30.221Z,16.50
2018-06-12T03:53:58.394Z,16.60
2018-06-12T03:56:26.558Z,16.60
2018-06-12T03:58:54.706Z,16.60
2018-06-12T04:01:22.846Z,16.50
2018-06-12T04:03:50.994Z,16.50
2018-06-12T04:06:19.139Z,16.40
2018-06-12T04:08:47.413Z,16.50
2018-06-12T04:11:15.563Z,16.50
2018-06-12T04:13:43.714Z,16.50
2018-06-12T04:16:12.707Z,16.50
2018-06-12T04:18:40.957Z,16.50
2018-06-12T04:21:09.102Z,16.00
2018-06-12T04:23:37.258Z,16.00
2018-06-12T04:26:05.405Z,16.00
2018-06-12T04:33:29.495Z,16.00
2018-06-12T04:35:57.641Z,16.10
2018-06-12T04:38:25.813Z,16.10
2018-06-12T04:40:53.988Z,16.00
2018-06-12T04:43:22.288Z,16.10
2018-06-12T04:45:50.438Z,16.10
2018-06-12T04:48:18.643Z,16.10
2018-06-12T04:50:46.882Z,16.00
2018-06-12T04:53:15.026Z,16.00
2018-06-12T04:55:43.182Z,16.10
2018-06-12T04:58:11.322Z,16.10
2018-06-12T05:00:39.627Z,16.10
2018-06-12T05:03:07.883Z,16.10
2018-06-12T05:05:36.034Z,16.20
2018-06-12T05:10:32.108Z,15.50
2018-06-12T05:13:00.281Z,15.30
2018-06-12T05:15:28.554Z,15.20
2018-06-12T05:17:56.718Z,15.10
2018-06-12T05:22:52.889Z,15.10
2018-06-12T05:25:21.070Z,15.20
2018-06-12T05:27:49.354Z,15.10
2018-06-12T05:30:17.499Z,15.20
2018-06-12T05:32:45.629Z,15.20
2018-06-12T05:35:13.786Z,15.20
2018-06-12T05:37:41.926Z,15.30
2018-06-12T05:40:10.091Z,15.30
2018-06-12T05:42:38.658Z,15.30
2018-06-12T05:45:06.841Z,15.30
2018-06-12T05:47:35.174Z,15.30
2018-06-12T05:50:03.331Z,15.20
2018-06-12T05:52:31.482Z,15.20
2018-06-12T05:54:59.693Z,15.30
2018-06-12T05:57:27.835Z,15.20
2018-06-12T05:59:55.982Z,15.10
2018-06-12T06:02:24.125Z,15.20
2018-06-12T06:04:52.328Z,15.20
2018-06-12T06:07:20.514Z,15.20
2018-06-12T06:09:48.654Z,15.20
2018-06-12T06:12:16.863Z,15.40
2018-06-12T06:14:44.994Z,15.30
2018-06-12T06:17:13.314Z,15.40
2018-06-12T06:19:41.533Z,15.50
2018-06-12T06:22:09.678Z,15.60
2018-06-12T06:24:37.839Z,15.60
2018-06-12T06:29:33.946Z,15.60
2018-06-12T06:32:02.105Z,15.70
2018-06-12T06:34:30.237Z,15.70
2018-06-12T06:39:26.406Z,15.70
2018-06-12T06:41:54.572Z,15.70
2018-06-12T06:44:22.722Z,15.80
2018-06-12T06:46:50.854Z,15.70
2018-06-12T06:49:20.055Z,15.70
2018-06-12T06:51:48.258Z,15.80
2018-06-12T06:54:16.410Z,15.70
2018-06-12T06:56:44.566Z,15.60
2018-06-12T06:59:12.743Z,15.80
2018-06-12T07:01:40.906Z,15.90
2018-06-12T07:06:37.313Z,16.30
2018-06-12T07:09:07.855Z,16.40
2018-06-12T07:11:35.991Z,16.50
2018-06-12T07:14:04.142Z,16.60
2018-06-12T07:16:32.336Z,16.60
2018-06-12T07:19:01.124Z,16.70
2018-06-12T07:23:57.187Z,16.70
2018-06-12T07:26:25.363Z,16.70
2018-06-12T07:28:53.568Z,16.80
2018-06-12T07:31:21.702Z,16.80
2018-06-12T07:33:49.858Z,16.90
2018-06-12T07:36:17.997Z,16.90
2018-06-12T07:38:46.258Z,16.90
2018-06-12T07:41:14.398Z,17.00
2018-06-12T07:43:42.547Z,17.00
2018-06-12T07:46:10.677Z,17.00
2018-06-12T07:48:39.274Z,17.10
2018-06-12T07:51:08.106Z,17.20
2018-06-12T07:53:36.246Z,17.20
2018-06-12T07:56:04.397Z,17.20
2018-06-12T07:58:32.537Z,17.30
2018-06-12T08:01:00.772Z,17.20
2018-06-12T08:03:28.927Z,17.30
2018-06-12T08:05:57.045Z,17.30
2018-06-12T08:08:25.262Z,17.30
2018-06-12T08:10:53.482Z,17.40
2018-06-12T08:13:21.666Z,17.30
2018-06-12T08:15:49.945Z,17.30
2018-06-12T08:18:18.065Z,17.40
2018-06-12T08:20:46.214Z,17.50
2018-06-12T08:23:14.377Z,17.50
2018-06-12T08:25:42.550Z,17.50
2018-06-12T08:28:10.686Z,17.50
2018-06-12T08:30:38.867Z,17.70
2018-06-12T08:33:07.170Z,17.60
2018-06-12T08:35:35.354Z,17.60
2018-06-12T08:38:03.483Z,17.80
2018-06-12T08:40:31.629Z,17.90
2018-06-12T08:42:59.798Z,18.00
2018-06-12T08:45:28.876Z,18.20
2018-06-12T08:47:57.013Z,18.40
2018-06-12T08:50:25.170Z,18.40
2018-06-12T08:52:53.306Z,18.40
2018-06-12T08:55:21.509Z,18.50
2018-06-12T08:57:49.773Z,18.50
2018-06-12T09:00:17.972Z,18.50
2018-06-12T09:02:46.161Z,18.50
2018-06-12T09:05:14.247Z,18.50
2018-06-12T09:07:42.538Z,18.60
2018-06-12T09:10:10.842Z,18.60
2018-06-12T09:12:38.988Z,18.60
2018-06-12T09:15:07.196Z,18.60
2018-06-12T09:17:35.414Z,18.60
2018-06-12T09:20:03.917Z,18.70
2018-06-12T09:22:32.162Z,18.80
2018-06-12T09:25:00.297Z,18.80
2018-06-12T09:27:28.446Z,18.90
2018-06-12T09:29:56.582Z,18.90
2018-06-12T09:32:24.803Z,19.00
2018-06-12T09:34:53.006Z,19.00
2018-06-12T09:37:21.206Z,19.00
2018-06-12T09:39:49.381Z,19.10
2018-06-12T09:42:17.578Z,19.10
2018-06-12T09:44:45.725Z,19.00
2018-06-12T09:47:13.875Z,18.90
2018-06-12T09:49:42.014Z,18.80
2018-06-12T09:52:11.223Z,18.60
2018-06-12T09:54:39.502Z,18.40
2018-06-12T09:57:07.658Z,18.50
2018-06-12T09:59:35.846Z,18.40
2018-06-12T10:04:31.953Z,18.80
2018-06-12T10:07:00.118Z,19.00
2018-06-12T10:09:28.266Z,19.30
2018-06-12T10:11:56.406Z,19.30
2018-06-12T10:14:24.678Z,19.40
2018-06-12T10:16:52.871Z,19.60
2018-06-12T10:19:21.025Z,19.70
2018-06-12T10:21:49.165Z,19.60
2018-06-12T10:24:17.343Z,19.60
2018-06-12T10:26:46.062Z,19.60
2018-06-12T10:29:14.221Z,19.60
2018-06-12T10:31:42.390Z,19.60
2018-06-12T10:34:10.533Z,19.50
2018-06-12T10:36:38.746Z,19.50
2018-06-12T10:39:07.893Z,19.50
2018-06-12T10:41:36.070Z,19.50
2018-06-12T10:44:04.286Z,19.40
2018-06-12T10:46:32.453Z,19.30
2018-06-12T10:49:01.286Z,19.40
2018-06-12T10:51:29.881Z,19.40
2018-06-12T10:53:58.081Z,19.60
2018-06-12T10:56:26.322Z,19.80
2018-06-12T10:58:54.426Z,19.90
2018-06-12T11:01:23.405Z,20.10
2018-06-12T11:03:51.542Z,20.10
2018-06-12T11:06:19.698Z,20.40
2018-06-12T11:08:47.837Z,20.70
2018-06-12T11:11:16.097Z,20.80
2018-06-12T11:13:44.266Z,20.90
2018-06-12T11:16:12.409Z,21.00
2018-06-12T11:18:40.626Z,21.00
2018-06-12T11:21:08.769Z,20.90
2018-06-12T11:23:36.921Z,20.80
2018-06-12T11:26:05.069Z,20.60
2018-06-12T11:28:33.206Z,20.50
2018-06-12T11:31:01.407Z,20.40
2018-06-12T11:33:29.695Z,20.40
2018-06-12T11:35:57.899Z,20.40
2018-06-12T11:38:26.090Z,20.50
2018-06-12T11:40:54.246Z,20.50
2018-06-12T11:43:22.401Z,20.50
2018-06-12T11:45:50.602Z,20.50
2018-06-12T11:48:18.766Z,20.60
2018-06-12T11:50:46.911Z,20.50
2018-06-12T11:53:15.120Z,20.60
2018-06-12T11:55:43.693Z,20.60
2018-06-12T11:58:11.863Z,20.40
2018-06-12T12:00:40.004Z,20.30
2018-06-12T12:03:08.150Z,20.20
2018-06-12T12:05:36.377Z,20.20
2018-06-12T12:08:04.522Z,20.20
2018-06-12T12:10:32.674Z,20.00
2018-06-12T12:13:00.818Z,20.00
2018-06-12T12:15:28.956Z,20.00
2018-06-12T12:17:57.153Z,19.90
2018-06-12T12:20:25.338Z,19.80
2018-06-12T12:22:53.522Z,19.80
2018-06-12T12:25:21.706Z,19.80
2018-06-12T12:27:49.858Z,19.70
2018-06-12T12:30:17.999Z,19.70
2018-06-12T12:32:46.146Z,19.60
2018-06-12T12:35:14.318Z,19.40
2018-06-12T12:37:42.473Z,19.30
2018-06-12T12:40:10.634Z,19.20
2018-06-12T12:42:38.794Z,19.20
2018-06-12T12:45:06.940Z,19.20
2018-06-12T12:47:35.228Z,19.30
2018-06-12T12:50:04.111Z,19.30
2018-06-12T12:52:32.337Z,19.30
2018-06-12T12:55:00.489Z,19.40
2018-06-12T12:57:28.682Z,19.40
2018-06-12T12:59:56.861Z,19.40
2018-06-12T13:02:25.022Z,19.40
2018-06-12T13:04:53.194Z,19.30
2018-06-12T13:07:21.384Z,19.20
2018-06-12T13:09:50.574Z,19.20
2018-06-12T13:12:18.774Z,19.30
2018-06-12T13:14:46.944Z,19.30
2018-06-12T13:17:15.081Z,19.20
2018-06-12T13:19:43.234Z,19.20
2018-06-12T13:22:11.406Z,19.20
2018-06-12T13:24:39.593Z,19.20
2018-06-12T13:27:07.742Z,19.20
2018-06-12T13:29:35.991Z,19.10
2018-06-12T13:32:04.147Z,19.10
2018-06-12T13:34:32.364Z,19.10
2018-06-12T13:37:00.510Z,19.10
2018-06-12T13:39:28.754Z,19.10
2018-06-12T13:41:56.923Z,19.10
2018-06-12T13:44:25.202Z,19.10
2018-06-12T13:46:54.062Z,19.10
2018-06-12T13:49:22.198Z,19.10
2018-06-12T13:54:18.355Z,19.10
2018-06-12T13:56:46.662Z,19.10
2018-06-12T13:59:14.805Z,19.00
2018-06-12T14:01:42.998Z,18.90
2018-06-12T14:04:11.150Z,18.90
2018-06-12T14:06:39.354Z,18.90
2018-06-12T14:09:08.091Z,18.90
2018-06-12T14:11:36.265Z,18.90
2018-06-12T14:14:04.478Z,18.90
2018-06-12T14:16:32.637Z,18.90
2018-06-12T14:19:00.837Z,18.90
2018-06-12T14:23:56.931Z,18.90
2018-06-12T14:26:25.219Z,18.90
2018-06-12T14:28:53.484Z,18.90
2018-06-12T14:31:21.662Z,18.90
2018-06-12T14:33:49.819Z,18.90
2018-06-12T14:36:17.970Z,18.90
2018-06-12T14:38:46.169Z,19.00
2018-06-12T14:41:14.322Z,19.00
2018-06-12T14:43:42.490Z,19.00
2018-06-12T14:46:10.646Z,19.00
2018-06-12T14:48:38.842Z,19.00
2018-06-12T14:51:06.998Z,19.10
2018-06-12T14:53:35.146Z,19.10
2018-06-12T14:56:03.297Z,19.10
2018-06-12T14:58:31.471Z,19.20
2018-06-12T15:00:59.898Z,19.20
2018-06-12T15:03:29.030Z,19.10
2018-06-12T15:05:57.157Z,19.20
2018-06-12T15:08:25.305Z,19.20
2018-06-12T15:10:53.450Z,19.30
2018-06-12T15:13:21.609Z,19.30
2018-06-12T15:15:49.746Z,19.40
2018-06-12T15:20:45.789Z,19.70
2018-06-12T15:23:14.010Z,19.80
2018-06-12T15:25:42.254Z,19.90
2018-06-12T15:28:10.410Z,20.00
2018-06-12T15:30:38.550Z,20.00
2018-06-12T15:33:06.730Z,19.90
2018-06-12T15:35:34.914Z,19.80
2018-06-12T15:38:03.046Z,19.80
2018-06-12T15:40:31.190Z,19.80
2018-06-12T15:42:59.385Z,19.80
2018-06-12T15:45:27.545Z,19.80
2018-06-12T15:47:55.699Z,19.70
2018-06-12T15:50:23.837Z,19.60
2018-06-12T15:52:51.982Z,19.50
2018-06-12T15:55:20.122Z,19.50
2018-06-12T15:57:48.269Z,19.60
2018-06-12T16:00:16.431Z,19.70
2018-06-12T16:02:44.690Z,19.70
2018-06-12T16:05:12.868Z,19.70
2018-06-12T16:07:41.110Z,19.70
2018-06-12T16:10:09.259Z,19.80
2018-06-12T16:12:37.405Z,19.80
2018-06-12T16:15:05.607Z,19.90
2018-06-12T16:20:01.783Z,19.90
2018-06-12T16:22:29.930Z,19.90
2018-06-12T16:24:58.085Z,19.90
2018-06-12T16:27:26.225Z,19.90
2018-06-12T16:29:54.438Z,19.90
2018-06-12T16:32:22.590Z,19.80
2018-06-12T16:34:50.745Z,19.80
2018-06-12T16:37:18.920Z,19.70
2018-06-12T16:39:47.086Z,19.70
2018-06-12T16:42:15.234Z,19.70
2018-06-12T16:44:43.465Z,19.60
2018-06-12T16:47:11.642Z,19.60
2018-06-12T16:54:35.730Z,19.70
2018-06-12T16:59:31.815Z,19.70
2018-06-12T17:02:00.002Z,19.80
2018-06-12T17:04:28.176Z,19.80
2018-06-12T17:06:56.348Z,19.70
2018-06-12T17:09:24.501Z,19.70
2018-06-12T17:11:54.599Z,19.60
2018-06-12T17:14:22.771Z,19.60
2018-06-12T17:16:50.905Z,19.50
2018-06-12T17:19:20.856Z,19.50
2018-06-12T17:21:49.741Z,19.50
2018-06-12T17:24:17.910Z,19.60
2018-06-12T17:26:46.275Z,19.70
2018-06-12T17:29:14.570Z,19.50
2018-06-12T17:31:42.758Z,19.50
2018-06-12T17:34:11.011Z,19.50
2018-06-12T17:36:39.214Z,19.50
2018-06-12T17:39:07.819Z,19.40
2018-06-12T17:41:36.055Z,19.40
2018-06-12T17:44:04.449Z,19.40
2018-06-12T17:46:32.615Z,19.40
2018-06-12T17:49:00.823Z,19.40
2018-06-12T17:51:28.971Z,19.40
2018-06-12T17:53:57.113Z,19.40
2018-06-12T17:56:25.269Z,19.30
2018-06-12T17:58:53.521Z,19.30
2018-06-12T18:01:21.669Z,19.30
2018-06-12T18:03:49.830Z,19.30
2018-06-12T18:06:18.386Z,19.30
2018-06-12T18:08:46.558Z,19.30
2018-06-12T18:11:15.313Z,19.30
2018-06-12T18:13:43.655Z,19.30
2018-06-12T18:16:11.806Z,19.30
2018-06-12T18:18:39.974Z,19.30
2018-06-12T18:21:08.138Z,19.30
2018-06-12T18:23:36.325Z,19.20
2018-06-12T18:26:04.502Z,19.20
2018-06-12T18:28:32.650Z,19.00
2018-06-12T18:31:00.842Z,19.00
2018-06-12T18:33:29.062Z,19.00
2018-06-12T18:35:57.194Z,18.90
2018-06-12T18:38:25.349Z,19.10
2018-06-12T18:43:21.612Z,19.00
2018-06-12T18:45:49.763Z,19.00
2018-06-12T18:48:17.921Z,18.90
2018-06-12T18:50:46.070Z,18.90
2018-06-12T18:53:14.336Z,18.90
2018-06-12T18:55:42.554Z,18.80
2018-06-12T18:58:10.709Z,18.80
2018-06-12T19:00:39.178Z,18.70
2018-06-12T19:03:07.386Z,18.80
2018-06-12T19:05:35.626Z,18.70
2018-06-12T19:08:03.786Z,18.60
2018-06-12T19:10:31.990Z,18.60
2018-06-12T19:13:00.714Z,18.60
2018-06-12T19:15:30.057Z,18.60
2018-06-12T19:17:58.263Z,18.60
2018-06-12T19:20:27.567Z,18.60
2018-06-12T19:22:55.745Z,18.60
2018-06-12T19:25:23.921Z,18.50
2018-06-12T19:27:52.082Z,18.40
2018-06-12T19:30:20.549Z,18.40
2018-06-12T19:32:54.189Z,18.30
2018-06-12T19:35:23.286Z,18.30
2018-06-12T19:37:51.454Z,18.30
2018-06-12T19:40:19.743Z,18.30
2018-06-12T19:42:47.920Z,18.20
2018-06-12T19:45:16.070Z,18.20
2018-06-12T19:47:44.358Z,18.20
2018-06-12T19:50:12.483Z,18.10
2018-06-12T19:52:40.630Z,18.10
2018-06-12T19:55:08.814Z,18.00
2018-06-12T19:57:36.934Z,18.00
2018-06-12T20:00:05.090Z,17.90
2018-06-12T20:02:33.282Z,18.00
2018-06-12T20:05:02.248Z,18.00
2018-06-12T20:07:30.385Z,18.00
2018-06-12T20:09:58.534Z,18.00
2018-06-12T20:12:26.701Z,17.80
2018-06-12T20:14:54.885Z,17.90
2018-06-12T20:17:23.042Z,17.90
2018-06-12T20:19:51.282Z,18.00
2018-06-12T20:22:19.486Z,17.90
2018-06-12T20:24:47.085Z,17.70
2018-06-12T20:27:14.554Z,17.70
2018-06-12T20:29:42.017Z,17.70
2018-06-12T20:32:09.489Z,17.60
2018-06-12T20:34:37.920Z,17.70
2018-06-12T20:37:05.407Z,17.60
2018-06-12T20:39:32.858Z,17.60
2018-06-12T20:42:00.481Z,17.60
2018-06-12T20:44:27.990Z,17.60
2018-06-12T20:46:55.458Z,17.60
2018-06-12T20:49:22.909Z,17.50
2018-06-12T20:51:50.369Z,17.40
2018-06-12T20:54:17.821Z,17.50
2018-06-12T20:56:45.277Z,17.40
2018-06-12T20:59:12.829Z,17.50
2018-06-12T21:01:40.290Z,17.40
2018-06-12T21:04:07.753Z,17.30
2018-06-12T21:06:35.217Z,17.30
2018-06-12T21:09:03.010Z,17.30
2018-06-12T21:11:30.494Z,17.40
2018-06-12T21:13:57.957Z,17.40
2018-06-12T21:16:25.413Z,17.40
2018-06-12T21:18:52.878Z,17.40
2018-06-12T21:21:20.329Z,17.40
2018-06-12T21:23:47.833Z,17.40
2018-06-12T21:26:15.308Z,17.50
2018-06-12T21:28:42.797Z,17.50
2018-06-12T21:31:10.246Z,17.50
2018-06-12T21:33:37.705Z,17.50
2018-06-12T21:36:05.157Z,17.40
2018-06-12T21:38:32.633Z,17.40
2018-06-12T21:41:00.093Z,17.40
2018-06-12T21:43:27.601Z,17.30
2018-06-12T21:45:55.065Z,17.30
2018-06-12T21:48:22.530Z,17.20
2018-06-12T21:50:50.045Z,17.20
2018-06-12T21:53:17.506Z,17.20
2018-06-12T21:55:44.965Z,17.20
2018-06-12T21:58:12.425Z,17.20
2018-06-12T22:00:39.957Z,17.20
2018-06-12T22:03:07.413Z,17.10
2018-06-12T22:05:34.897Z,17.00
2018-06-12T22:08:04.241Z,16.90
2018-06-12T22:10:31.702Z,16.90
2018-06-12T22:12:59.149Z,16.80
2018-06-12T22:15:27.277Z,16.80
2018-06-12T22:17:55.800Z,16.70
2018-06-12T22:20:23.297Z,16.70
2018-06-12T22:22:50.753Z,16.70
2018-06-12T22:25:18.253Z,16.60
2018-06-12T22:30:12.982Z,16.60
2018-06-12T22:32:40.434Z,16.60
2018-06-12T22:35:07.893Z,16.50
2018-06-12T22:37:35.357Z,16.50
2018-06-12T22:40:02.853Z,16.50
2018-06-12T22:42:30.297Z,16.40
2018-06-12T22:44:57.765Z,16.40
2018-06-12T22:47:25.274Z,16.40
2018-06-12T22:49:52.737Z,16.30
2018-06-12T22:52:20.192Z,16.20
2018-06-12T22:54:47.675Z,16.10
2018-06-12T22:57:15.122Z,16.10
2018-06-12T22:59:42.569Z,16.10
2018-06-12T23:02:10.078Z,16.10
2018-06-12T23:04:37.529Z,16.10
2018-06-12T23:07:05.074Z,16.10
2018-06-12T23:09:32.552Z,16.20
2018-06-12T23:12:00.105Z,16.20
2018-06-12T23:14:27.614Z,16.20
2018-06-12T23:16:55.119Z,16.10
2018-06-12T23:21:55.381Z,16.10
2018-06-12T23:24:22.938Z,16.10
2018-06-12T23:26:50.389Z,16.10
2018-06-12T23:29:17.845Z,16.10
2018-06-12T23:31:45.327Z,16.10
2018-06-12T23:34:12.777Z,16.10
2018-06-12T23:36:40.237Z,16.10
2018-06-12T23:39:08.213Z,16.10
2018-06-12T23:41:35.669Z,16.10
2018-06-12T23:44:03.125Z,16.10
2018-06-12T23:46:30.718Z,16.20
2018-06-12T23:48:58.261Z,16.20
2018-06-12T23:51:25.729Z,16.20
2018-06-12T23:53:53.265Z,16.20
2018-06-12T23:56:20.805Z,16.20
2018-06-12T23:58:48.258Z,16.20
